createdAt,value
2022-12-17T00:02:22.700Z,100.00
2022-12-17T00:05:08.257Z,100.00
2022-12-17T00:07:53.503Z,100.00
2022-12-17T00:10:40.361Z,100.00
2022-12-17T00:13:37.017Z,100.00
2022-12-17T00:16:22.798Z,100.00
2022-12-17T00:19:08.263Z,100.00
2022-12-17T00:21:53.764Z,100.00
2022-12-17T00:24:41.810Z,100.00
2022-12-17T00:27:27.314Z,100.00
2022-12-17T00:30:12.972Z,99.93
2022-12-17T00:32:58.647Z,99.99
2022-12-17T00:35:44.098Z,99.95
2022-12-17T00:38:36.519Z,100.00
2022-12-17T00:41:21.759Z,100.00
2022-12-17T00:44:07.194Z,100.00
2022-12-17T00:46:52.629Z,100.00
2022-12-17T00:49:38.013Z,100.00
2022-12-17T00:52:23.458Z,99.72
2022-12-17T00:55:08.929Z,99.28
2022-12-17T00:57:54.251Z,99.04
2022-12-17T01:00:43.434Z,98.86
2022-12-17T01:03:29.884Z,98.83
2022-12-17T01:06:15.346Z,98.89
2022-12-17T01:09:00.756Z,98.49
2022-12-17T01:11:46.105Z,98.65
2022-12-17T01:14:31.487Z,98.45
2022-12-17T01:17:17.175Z,98.42
2022-12-17T01:20:02.495Z,98.10
2022-12-17T01:22:47.891Z,98.03
2022-12-17T01:25:33.135Z,97.88
2022-12-17T01:28:18.453Z,97.67
2022-12-17T01:31:06.918Z,97.75
2022-12-17T01:33:52.234Z,97.50
2022-12-17T01:36:37.869Z,97.46
2022-12-17T01:39:23.356Z,97.48
2022-12-17T01:42:08.662Z,97.46
2022-12-17T01:45:04.382Z,97.66
2022-12-17T01:47:56.795Z,97.79
2022-12-17T01:50:43.724Z,97.67
2022-12-17T01:53:29.368Z,97.59
2022-12-17T01:56:15.568Z,97.67
2022-12-17T01:59:01.046Z,97.77
2022-12-17T02:01:46.545Z,97.26
2022-12-17T02:04:32.310Z,97.29
2022-12-17T02:07:27.856Z,97.03
2022-12-17T02:10:47.162Z,96.56
2022-12-17T02:13:35.005Z,96.45
2022-12-17T02:16:26.822Z,96.64
2022-12-17T02:19:16.572Z,96.60
2022-12-17T02:22:02.141Z,97.11
2022-12-17T02:24:51.549Z,97.21
2022-12-17T06:49:45.073Z,100.00
2022-12-17T06:52:30.435Z,100.00
2022-12-17T06:55:15.791Z,100.00
2022-12-17T06:58:01.290Z,100.00
2022-12-17T07:00:46.880Z,100.00
2022-12-17T07:03:32.209Z,100.00
2022-12-17T07:06:20.783Z,100.00
2022-12-17T07:09:20.780Z,100.00
2022-12-17T07:12:06.168Z,100.00
2022-12-17T07:14:51.475Z,100.00
2022-12-17T07:17:37.749Z,100.00
2022-12-17T07:20:23.736Z,100.00
2022-12-17T07:23:13.762Z,100.00
2022-12-17T07:25:59.700Z,100.00
2022-12-17T07:28:44.975Z,100.00
2022-12-17T07:31:30.522Z,100.00
2022-12-17T07:34:15.784Z,100.00
2022-12-17T07:37:01.117Z,100.00
2022-12-17T07:39:46.489Z,100.00
2022-12-17T07:42:31.917Z,100.00
2022-12-17T07:45:17.416Z,100.00
2022-12-17T07:48:10.343Z,100.00
2022-12-17T07:50:55.359Z,100.00
2022-12-17T07:53:40.823Z,100.00
2022-12-17T07:56:26.165Z,100.00
2022-12-17T07:59:11.566Z,100.00
2022-12-17T08:01:57.028Z,100.00
2022-12-17T08:04:42.391Z,100.00
2022-12-17T08:07:27.748Z,100.00
2022-12-17T08:10:13.076Z,99.98
2022-12-17T08:12:58.393Z,99.91
2022-12-17T08:15:43.763Z,99.98
2022-12-17T08:18:29.169Z,99.92
2022-12-17T08:21:14.718Z,100.00
2022-12-17T08:24:00.112Z,100.00
2022-12-17T08:26:48.203Z,100.00
2022-12-17T08:29:34.007Z,100.00
2022-12-17T08:32:19.275Z,100.00
2022-12-17T08:35:04.704Z,100.00
2022-12-17T08:37:50.035Z,100.00
2022-12-17T08:40:35.511Z,100.00
2022-12-17T08:43:20.824Z,100.00
2022-12-17T08:46:09.203Z,100.00
2022-12-17T08:48:54.547Z,100.00
2022-12-17T08:51:40.438Z,100.00
2022-12-17T08:54:25.931Z,100.00
2022-12-17T08:57:11.073Z,100.00
2022-12-17T08:59:56.509Z,100.00
2022-12-17T09:02:42.102Z,100.00
2022-12-17T09:05:27.510Z,100.00
2022-12-17T09:08:21.474Z,100.00
2022-12-17T09:11:06.814Z,100.00
2022-12-17T09:13:52.133Z,100.00
2022-12-17T09:16:37.976Z,100.00
2022-12-17T09:19:23.885Z,100.00
2022-12-17T09:22:09.248Z,100.00
2022-12-17T09:24:54.562Z,100.00
2022-12-17T09:27:40.022Z,100.00
2022-12-17T09:30:25.970Z,100.00
2022-12-17T09:33:11.192Z,100.00
2022-12-17T09:35:57.534Z,100.00
2022-12-17T09:38:42.984Z,100.00
2022-12-17T09:41:45.004Z,100.00
2022-12-17T09:44:40.643Z,100.00
2022-12-17T09:47:30.190Z,100.00
2022-12-17T09:50:15.801Z,100.00
2022-12-17T09:53:01.108Z,100.00
2022-12-17T09:56:00.300Z,100.00
2022-12-17T09:58:46.167Z,100.00
2022-12-17T10:01:39.187Z,100.00
2022-12-17T10:04:29.278Z,100.00
2022-12-17T10:07:14.866Z,100.00
2022-12-17T10:10:00.197Z,100.00
2022-12-17T10:12:45.749Z,99.98
2022-12-17T10:15:34.174Z,99.95
2022-12-17T10:18:26.775Z,99.35
2022-12-17T10:21:23.278Z,99.04
2022-12-17T10:24:08.575Z,99.08
2022-12-17T10:26:54.442Z,99.26
2022-12-17T10:29:48.264Z,99.24
2022-12-17T10:32:33.851Z,99.15
2022-12-17T10:35:39.957Z,98.66
2022-12-17T10:38:32.396Z,98.51
2022-12-17T10:41:21.446Z,98.32
2022-12-17T10:44:06.733Z,98.29
2022-12-17T10:46:52.837Z,98.44
2022-12-17T10:49:42.472Z,98.57
2022-12-17T10:52:46.732Z,98.57
2022-12-17T10:55:45.837Z,98.66
2022-12-17T10:58:42.066Z,98.99
2022-12-17T11:01:51.435Z,99.13
2022-12-17T11:04:49.733Z,98.83
2022-12-17T11:07:56.352Z,98.53
2022-12-17T11:10:42.668Z,98.30
2022-12-17T11:13:30.928Z,98.00
2022-12-17T11:16:17.285Z,97.87
2022-12-17T14:34:08.856Z,100.00
2022-12-17T14:36:36.692Z,100.00
2022-12-17T14:39:11.148Z,100.00
2022-12-17T14:41:57.144Z,100.00
2022-12-17T14:44:28.274Z,100.00
2022-12-17T14:47:10.146Z,100.00
2022-12-17T14:49:37.658Z,100.00
2022-12-17T14:52:13.996Z,100.00
2022-12-17T14:54:45.551Z,100.00
2022-12-17T14:57:21.942Z,100.00
2022-12-17T14:59:48.705Z,100.00
2022-12-17T15:02:18.845Z,100.00
2022-12-17T15:04:45.562Z,100.00
2022-12-17T15:07:18.244Z,100.00
2022-12-17T15:09:45.075Z,100.00
2022-12-17T15:12:11.701Z,100.00
2022-12-17T15:14:38.312Z,100.00
2022-12-17T15:17:05.988Z,100.00
2022-12-17T15:19:32.996Z,100.00
2022-12-17T15:21:59.631Z,100.00
2022-12-17T15:24:27.127Z,100.00
2022-12-17T15:26:54.736Z,100.00
2022-12-17T15:29:21.368Z,99.94
2022-12-17T15:31:48.126Z,99.55
2022-12-17T15:34:14.856Z,99.28
2022-12-17T15:36:41.544Z,99.37
2022-12-17T15:39:09.453Z,99.27
2022-12-17T15:41:55.116Z,99.31
2022-12-17T15:44:21.745Z,99.15
2022-12-17T15:46:48.377Z,99.15
2022-12-17T15:49:15.018Z,99.12
2022-12-17T15:51:41.652Z,98.97
2022-12-17T15:54:08.264Z,98.73
2022-12-17T15:56:37.120Z,98.54
2022-12-17T15:59:03.839Z,98.46
2022-12-17T16:01:30.570Z,98.38
2022-12-17T16:03:57.842Z,98.23
2022-12-17T16:06:24.477Z,98.17
2022-12-17T16:08:51.113Z,98.10
2022-12-17T16:11:17.817Z,97.95
2022-12-17T16:13:44.865Z,97.80
2022-12-17T16:16:11.524Z,97.58
2022-12-17T16:18:38.967Z,97.47
2022-12-17T16:21:06.651Z,97.40
2022-12-17T16:23:33.400Z,97.28
2022-12-17T16:26:01.537Z,97.32
2022-12-17T16:28:28.438Z,97.14
2022-12-17T16:30:59.653Z,97.16
2022-12-17T16:33:31.086Z,96.82
2022-12-17T16:36:00.877Z,96.91
2022-12-17T16:38:27.549Z,96.78
2022-12-17T16:40:56.586Z,96.77
2022-12-17T16:43:24.252Z,96.79
2022-12-17T16:45:51.786Z,96.77
2022-12-17T16:48:20.727Z,96.70
2022-12-17T16:50:50.211Z,96.75
2022-12-17T16:53:17.321Z,96.67
2022-12-17T16:55:48.568Z,96.84
2022-12-17T16:58:16.084Z,96.76
2022-12-17T17:00:42.831Z,96.75
2022-12-17T17:03:09.902Z,96.77
2022-12-17T17:05:38.599Z,96.85
2022-12-17T17:08:05.663Z,96.70
2022-12-17T17:10:34.795Z,96.81
2022-12-17T17:13:01.432Z,96.76
2022-12-17T17:15:28.074Z,96.84
2022-12-17T17:18:01.650Z,96.83
2022-12-17T17:20:32.266Z,96.68
2022-12-17T17:22:59.731Z,96.75
2022-12-17T17:25:38.787Z,96.64
2022-12-17T17:28:13.272Z,96.75
2022-12-17T17:30:39.888Z,97.01
2022-12-17T17:33:06.528Z,97.07
2022-12-17T17:35:33.342Z,97.09
2022-12-17T17:38:00.043Z,97.04
2022-12-17T17:40:26.803Z,97.11
2022-12-17T17:42:53.476Z,97.20
2022-12-17T17:45:20.161Z,97.15
2022-12-17T17:47:46.779Z,97.13
2022-12-17T17:50:13.438Z,97.22
2022-12-17T17:52:40.058Z,97.14
2022-12-17T17:55:07.376Z,97.11
2022-12-17T17:57:34.032Z,97.13
2022-12-17T18:00:00.677Z,97.04
2022-12-17T18:02:27.562Z,97.01
2022-12-17T18:04:54.392Z,97.07
2022-12-17T18:07:25.580Z,96.91
2022-12-17T18:09:53.051Z,97.16
2022-12-17T18:12:39.771Z,96.97
2022-12-17T18:15:15.887Z,96.78
2022-12-17T18:17:45.325Z,96.73
2022-12-17T18:20:13.820Z,96.68
2022-12-17T18:22:40.500Z,96.62
2022-12-17T18:25:07.423Z,96.81
2022-12-17T18:27:34.024Z,96.70
2022-12-17T18:30:00.768Z,96.83
2022-12-17T18:32:27.456Z,96.65
2022-12-17T18:34:54.290Z,96.39
2022-12-17T18:37:20.980Z,96.20
2022-12-17T21:37:59.395Z,100.00
2022-12-17T21:40:26.080Z,100.00
2022-12-17T21:43:01.840Z,100.00
2022-12-17T21:45:34.255Z,100.00
2022-12-17T21:48:01.146Z,100.00
2022-12-17T21:50:27.769Z,100.00
2022-12-17T21:52:54.424Z,100.00
2022-12-17T21:55:21.114Z,100.00
2022-12-17T21:57:47.785Z,100.00
2022-12-17T22:00:15.260Z,100.00
2022-12-17T22:02:42.062Z,99.71
2022-12-17T22:05:10.728Z,99.61
2022-12-17T22:07:43.197Z,99.23
2022-12-17T22:10:23.317Z,99.00
2022-12-17T22:13:21.723Z,98.45
2022-12-17T22:15:48.736Z,98.21
2022-12-17T22:18:15.405Z,98.12
2022-12-17T22:20:42.035Z,97.60
2022-12-17T22:23:08.676Z,97.40
2022-12-17T22:25:37.772Z,96.67
2022-12-17T22:28:04.675Z,95.99
2022-12-17T22:30:49.991Z,95.20
2022-12-17T22:33:47.965Z,94.66
2022-12-17T22:38:31.711Z,93.94
2022-12-17T22:44:31.510Z,93.85
